sensor_id;sensor_type;location;lat;lon;timestamp;P1;durP1;ratioP1;P2;durP2;ratioP2
10387;SDS011;5240;51.128;4.566;2023-06-14T00:00:48;9.38;;;6.30;;
10387;SDS011;5240;51.128;4.566;2023-06-14T00:03:15;7.15;;;5.95;;
10387;SDS011;5240;51.128;4.566;2023-06-14T00:05:43;10.38;;;6.05;;
10387;SDS011;5240;51.128;4.566;2023-06-14T00:08:11;7.85;;;5.90;;
10387;SDS011;5240;51.128;4.566;2023-06-14T00:10:40;7.95;;;6.05;;
10387;SDS011;5240;51.128;4.566;2023-06-14T00:13:07;7.10;;;5.60;;
10387;SDS011;5240;51.128;4.566;2023-06-14T00:15:34;8.80;;;6.28;;
10387;SDS011;5240;51.128;4.566;2023-06-14T00:18:02;8.25;;;5.65;;
10387;SDS011;5240;51.128;4.566;2023-06-14T00:20:30;7.65;;;6.07;;
10387;SDS011;5240;51.128;4.566;2023-06-14T00:22:58;13.68;;;6.00;;
10387;SDS011;5240;51.128;4.566;2023-06-14T00:25:26;9.60;;;6.15;;
10387;SDS011;5240;51.128;4.566;2023-06-14T00:27:55;6.25;;;5.65;;
10387;SDS011;5240;51.128;4.566;2023-06-14T00:30:24;7.47;;;6.28;;
10387;SDS011;5240;51.128;4.566;2023-06-14T00:32:55;8.65;;;6.07;;
10387;SDS011;5240;51.128;4.566;2023-06-14T00:35:22;9.43;;;6.25;;
10387;SDS011;5240;51.128;4.566;2023-06-14T00:37:50;8.57;;;5.93;;
10387;SDS011;5240;51.128;4.566;2023-06-14T00:40:17;10.77;;;6.60;;
10387;SDS011;5240;51.128;4.566;2023-06-14T00:42:44;9.50;;;6.70;;
10387;SDS011;5240;51.128;4.566;2023-06-14T00:45:13;11.68;;;7.07;;
10387;SDS011;5240;51.128;4.566;2023-06-14T00:47:40;9.23;;;6.85;;
10387;SDS011;5240;51.128;4.566;2023-06-14T00:50:09;7.05;;;6.07;;
10387;SDS011;5240;51.128;4.566;2023-06-14T00:52:36;8.50;;;6.50;;
10387;SDS011;5240;51.128;4.566;2023-06-14T00:55:04;7.40;;;6.70;;
10387;SDS011;5240;51.128;4.566;2023-06-14T00:57:31;9.50;;;7.00;;
10387;SDS011;5240;51.128;4.566;2023-06-14T01:00:03;7.05;;;6.43;;
10387;SDS011;5240;51.128;4.566;2023-06-14T01:02:35;7.18;;;6.47;;
10387;SDS011;5240;51.128;4.566;2023-06-14T01:05:03;8.02;;;6.63;;
10387;SDS011;5240;51.128;4.566;2023-06-14T01:07:33;9.70;;;6.72;;
10387;SDS011;5240;51.128;4.566;2023-06-14T01:10:21;8.15;;;7.13;;
10387;SDS011;5240;51.128;4.566;2023-06-14T01:13:01;13.10;;;6.78;;
10387;SDS011;5240;51.128;4.566;2023-06-14T01:15:33;8.15;;;6.95;;
10387;SDS011;5240;51.128;4.566;2023-06-14T01:18:03;11.65;;;6.47;;
10387;SDS011;5240;51.128;4.566;2023-06-14T01:20:31;9.45;;;7.28;;
10387;SDS011;5240;51.128;4.566;2023-06-14T01:23:03;10.23;;;7.20;;
10387;SDS011;5240;51.128;4.566;2023-06-14T01:25:30;8.65;;;7.05;;
10387;SDS011;5240;51.128;4.566;2023-06-14T01:27:57;7.50;;;6.70;;
10387;SDS011;5240;51.128;4.566;2023-06-14T01:30:27;8.98;;;6.97;;
10387;SDS011;5240;51.128;4.566;2023-06-14T01:32:58;8.00;;;7.05;;
10387;SDS011;5240;51.128;4.566;2023-06-14T01:35:26;10.60;;;7.03;;
10387;SDS011;5240;51.128;4.566;2023-06-14T01:37:53;12.23;;;6.90;;
10387;SDS011;5240;51.128;4.566;2023-06-14T01:40:22;8.02;;;7.22;;
10387;SDS011;5240;51.128;4.566;2023-06-14T01:42:50;9.40;;;6.72;;
10387;SDS011;5240;51.128;4.566;2023-06-14T01:45:18;8.90;;;6.90;;
10387;SDS011;5240;51.128;4.566;2023-06-14T01:47:45;8.68;;;6.65;;
10387;SDS011;5240;51.128;4.566;2023-06-14T01:50:13;10.70;;;7.15;;
10387;SDS011;5240;51.128;4.566;2023-06-14T01:52:40;9.68;;;7.10;;
10387;SDS011;5240;51.128;4.566;2023-06-14T01:55:08;6.82;;;6.22;;
10387;SDS011;5240;51.128;4.566;2023-06-14T01:57:36;7.38;;;6.57;;
10387;SDS011;5240;51.128;4.566;2023-06-14T02:00:04;10.02;;;6.80;;
10387;SDS011;5240;51.128;4.566;2023-06-14T02:02:35;8.48;;;6.75;;
10387;SDS011;5240;51.128;4.566;2023-06-14T02:05:03;8.18;;;6.28;;
10387;SDS011;5240;51.128;4.566;2023-06-14T02:07:30;8.77;;;6.07;;
10387;SDS011;5240;51.128;4.566;2023-06-14T02:09:58;11.85;;;6.95;;
10387;SDS011;5240;51.128;4.566;2023-06-14T02:12:25;7.50;;;6.35;;
10387;SDS011;5240;51.128;4.566;2023-06-14T02:14:53;11.93;;;6.70;;
10387;SDS011;5240;51.128;4.566;2023-06-14T02:17:21;8.20;;;6.10;;
10387;SDS011;5240;51.128;4.566;2023-06-14T02:19:48;10.43;;;6.68;;
10387;SDS011;5240;51.128;4.566;2023-06-14T02:22:15;8.30;;;6.38;;
10387;SDS011;5240;51.128;4.566;2023-06-14T02:24:43;9.15;;;6.32;;
10387;SDS011;5240;51.128;4.566;2023-06-14T02:27:10;9.40;;;5.95;;
10387;SDS011;5240;51.128;4.566;2023-06-14T02:29:37;6.95;;;6.00;;
10387;SDS011;5240;51.128;4.566;2023-06-14T02:32:06;8.73;;;5.93;;
10387;SDS011;5240;51.128;4.566;2023-06-14T02:34:34;7.95;;;5.78;;
10387;SDS011;5240;51.128;4.566;2023-06-14T02:37:01;10.27;;;5.85;;
10387;SDS011;5240;51.128;4.566;2023-06-14T02:39:29;8.00;;;6.38;;
10387;SDS011;5240;51.128;4.566;2023-06-14T02:41:56;7.43;;;6.13;;
10387;SDS011;5240;51.128;4.566;2023-06-14T02:44:24;8.40;;;6.00;;
10387;SDS011;5240;51.128;4.566;2023-06-14T02:46:52;7.03;;;5.97;;
10387;SDS011;5240;51.128;4.566;2023-06-14T02:49:20;6.18;;;5.40;;
10387;SDS011;5240;51.128;4.566;2023-06-14T02:51:48;6.97;;;5.90;;
10387;SDS011;5240;51.128;4.566;2023-06-14T02:54:15;6.47;;;5.68;;
10387;SDS011;5240;51.128;4.566;2023-06-14T02:56:42;7.53;;;6.22;;
10387;SDS011;5240;51.128;4.566;2023-06-14T02:59:09;7.10;;;6.25;;
10387;SDS011;5240;51.128;4.566;2023-06-14T03:01:36;11.13;;;6.10;;
10387;SDS011;5240;51.128;4.566;2023-06-14T03:04:04;7.70;;;6.25;;
10387;SDS011;5240;51.128;4.566;2023-06-14T03:06:32;6.72;;;6.00;;
10387;SDS011;5240;51.128;4.566;2023-06-14T03:08:59;7.88;;;5.97;;
10387;SDS011;5240;51.128;4.566;2023-06-14T03:11:29;8.02;;;6.03;;
10387;SDS011;5240;51.128;4.566;2023-06-14T03:13:56;8.02;;;5.80;;
10387;SDS011;5240;51.128;4.566;2023-06-14T03:16:23;6.10;;;5.50;;
10387;SDS011;5240;51.128;4.566;2023-06-14T03:18:51;6.43;;;5.82;;
10387;SDS011;5240;51.128;4.566;2023-06-14T03:21:18;7.05;;;5.82;;
10387;SDS011;5240;51.128;4.566;2023-06-14T03:23:47;9.32;;;5.75;;
10387;SDS011;5240;51.128;4.566;2023-06-14T03:26:14;7.65;;;5.43;;
10387;SDS011;5240;51.128;4.566;2023-06-14T03:28:43;8.02;;;6.00;;
10387;SDS011;5240;51.128;4.566;2023-06-14T03:31:10;8.43;;;6.03;;
10387;SDS011;5240;51.128;4.566;2023-06-14T03:33:37;7.07;;;6.03;;
10387;SDS011;5240;51.128;4.566;2023-06-14T03:36:05;8.68;;;5.60;;
10387;SDS011;5240;51.128;4.566;2023-06-14T03:38:32;9.05;;;5.70;;
10387;SDS011;5240;51.128;4.566;2023-06-14T03:41:01;8.48;;;5.82;;
10387;SDS011;5240;51.128;4.566;2023-06-14T03:43:28;10.10;;;5.75;;
10387;SDS011;5240;51.128;4.566;2023-06-14T03:45:55;8.43;;;6.05;;
10387;SDS011;5240;51.128;4.566;2023-06-14T03:48:22;9.65;;;5.68;;
10387;SDS011;5240;51.128;4.566;2023-06-14T03:50:49;7.30;;;5.22;;
10387;SDS011;5240;51.128;4.566;2023-06-14T03:53:17;6.68;;;5.35;;
10387;SDS011;5240;51.128;4.566;2023-06-14T03:55:45;6.55;;;5.78;;
10387;SDS011;5240;51.128;4.566;2023-06-14T03:58:15;6.22;;;5.40;;
10387;SDS011;5240;51.128;4.566;2023-06-14T04:00:42;8.80;;;5.07;;
10387;SDS011;5240;51.128;4.566;2023-06-14T04:03:10;8.98;;;6.00;;
10387;SDS011;5240;51.128;4.566;2023-06-14T04:05:38;11.10;;;5.45;;
10387;SDS011;5240;51.128;4.566;2023-06-14T04:08:07;7.00;;;5.88;;
10387;SDS011;5240;51.128;4.566;2023-06-14T04:10:35;6.43;;;5.78;;
10387;SDS011;5240;51.128;4.566;2023-06-14T04:13:02;7.93;;;5.78;;
10387;SDS011;5240;51.128;4.566;2023-06-14T04:15:31;9.43;;;5.75;;
10387;SDS011;5240;51.128;4.566;2023-06-14T04:17:58;11.68;;;6.15;;
10387;SDS011;5240;51.128;4.566;2023-06-14T04:20:26;7.40;;;5.78;;
10387;SDS011;5240;51.128;4.566;2023-06-14T04:22:56;9.48;;;6.25;;
10387;SDS011;5240;51.128;4.566;2023-06-14T04:25:23;9.10;;;5.90;;
10387;SDS011;5240;51.128;4.566;2023-06-14T04:27:53;9.00;;;5.93;;
10387;SDS011;5240;51.128;4.566;2023-06-14T04:30:20;7.25;;;5.00;;
10387;SDS011;5240;51.128;4.566;2023-06-14T04:32:53;13.55;;;5.70;;
10387;SDS011;5240;51.128;4.566;2023-06-14T04:35:20;8.40;;;5.93;;
10387;SDS011;5240;51.128;4.566;2023-06-14T04:37:49;10.48;;;6.38;;
10387;SDS011;5240;51.128;4.566;2023-06-14T04:40:16;8.40;;;5.78;;
10387;SDS011;5240;51.128;4.566;2023-06-14T04:42:43;11.98;;;6.53;;
10387;SDS011;5240;51.128;4.566;2023-06-14T04:45:11;8.93;;;6.25;;
10387;SDS011;5240;51.128;4.566;2023-06-14T04:47:40;9.70;;;6.47;;
10387;SDS011;5240;51.128;4.566;2023-06-14T04:50:09;13.65;;;6.00;;
10387;SDS011;5240;51.128;4.566;2023-06-14T04:52:38;12.50;;;6.72;;
10387;SDS011;5240;51.128;4.566;2023-06-14T04:55:05;6.72;;;5.85;;
10387;SDS011;5240;51.128;4.566;2023-06-14T04:57:33;12.75;;;6.75;;
10387;SDS011;5240;51.128;4.566;2023-06-14T05:00:00;10.13;;;6.40;;
10387;SDS011;5240;51.128;4.566;2023-06-14T05:02:30;7.40;;;6.32;;
10387;SDS011;5240;51.128;4.566;2023-06-14T05:04:58;7.72;;;6.03;;
10387;SDS011;5240;51.128;4.566;2023-06-14T05:07:28;7.93;;;6.45;;
10387;SDS011;5240;51.128;4.566;2023-06-14T05:09:55;10.20;;;6.35;;
10387;SDS011;5240;51.128;4.566;2023-06-14T05:12:22;10.75;;;6.20;;
10387;SDS011;5240;51.128;4.566;2023-06-14T05:14:49;10.50;;;6.50;;
10387;SDS011;5240;51.128;4.566;2023-06-14T05:17:16;17.05;;;7.57;;
10387;SDS011;5240;51.128;4.566;2023-06-14T05:19:43;11.68;;;6.05;;
10387;SDS011;5240;51.128;4.566;2023-06-14T05:22:10;8.75;;;6.47;;
10387;SDS011;5240;51.128;4.566;2023-06-14T05:24:39;16.17;;;6.88;;
10387;SDS011;5240;51.128;4.566;2023-06-14T05:27:06;12.13;;;7.30;;
10387;SDS011;5240;51.128;4.566;2023-06-14T05:29:33;11.10;;;6.88;;
10387;SDS011;5240;51.128;4.566;2023-06-14T05:32:01;9.70;;;6.30;;
10387;SDS011;5240;51.128;4.566;2023-06-14T05:34:28;11.15;;;6.88;;
10387;SDS011;5240;51.128;4.566;2023-06-14T05:36:55;10.40;;;7.13;;
10387;SDS011;5240;51.128;4.566;2023-06-14T05:39:22;9.60;;;6.95;;
10387;SDS011;5240;51.128;4.566;2023-06-14T05:41:51;8.77;;;7.30;;
10387;SDS011;5240;51.128;4.566;2023-06-14T05:44:18;13.30;;;7.05;;
10387;SDS011;5240;51.128;4.566;2023-06-14T05:46:45;13.48;;;6.38;;
10387;SDS011;5240;51.128;4.566;2023-06-14T05:49:12;13.10;;;7.53;;
10387;SDS011;5240;51.128;4.566;2023-06-14T05:51:39;11.50;;;6.63;;
10387;SDS011;5240;51.128;4.566;2023-06-14T05:54:06;7.40;;;6.50;;
10387;SDS011;5240;51.128;4.566;2023-06-14T05:56:33;9.73;;;7.00;;
10387;SDS011;5240;51.128;4.566;2023-06-14T05:59:02;8.48;;;7.35;;
10387;SDS011;5240;51.128;4.566;2023-06-14T06:01:29;13.30;;;6.97;;
10387;SDS011;5240;51.128;4.566;2023-06-14T06:03:57;13.15;;;6.75;;
10387;SDS011;5240;51.128;4.566;2023-06-14T06:06:26;11.30;;;7.30;;
10387;SDS011;5240;51.128;4.566;2023-06-14T06:08:53;13.48;;;7.10;;
10387;SDS011;5240;51.128;4.566;2023-06-14T06:11:20;9.75;;;6.95;;
10387;SDS011;5240;51.128;4.566;2023-06-14T06:13:48;15.93;;;8.68;;
10387;SDS011;5240;51.128;4.566;2023-06-14T06:16:17;22.63;;;7.93;;
10387;SDS011;5240;51.128;4.566;2023-06-14T06:18:44;14.00;;;6.88;;
10387;SDS011;5240;51.128;4.566;2023-06-14T06:21:12;20.85;;;7.10;;
10387;SDS011;5240;51.128;4.566;2023-06-14T06:23:41;8.90;;;6.63;;
10387;SDS011;5240;51.128;4.566;2023-06-14T06:26:12;10.25;;;5.90;;
10387;SDS011;5240;51.128;4.566;2023-06-14T06:29:37;10.13;;;7.43;;
10387;SDS011;5240;51.128;4.566;2023-06-14T06:34:41;8.52;;;7.18;;
10387;SDS011;5240;51.128;4.566;2023-06-14T06:37:08;13.30;;;7.40;;
10387;SDS011;5240;51.128;4.566;2023-06-14T06:39:38;9.38;;;6.53;;
10387;SDS011;5240;51.128;4.566;2023-06-14T06:42:05;9.05;;;6.38;;
10387;SDS011;5240;51.128;4.566;2023-06-14T06:44:35;9.50;;;7.03;;
10387;SDS011;5240;51.128;4.566;2023-06-14T06:47:04;10.88;;;6.97;;
10387;SDS011;5240;51.128;4.566;2023-06-14T06:49:31;7.72;;;5.75;;
10387;SDS011;5240;51.128;4.566;2023-06-14T06:52:00;14.45;;;6.80;;
10387;SDS011;5240;51.128;4.566;2023-06-14T06:54:31;11.60;;;6.60;;
10387;SDS011;5240;51.128;4.566;2023-06-14T06:56:59;11.20;;;6.35;;
10387;SDS011;5240;51.128;4.566;2023-06-14T06:59:37;10.95;;;6.70;;
10387;SDS011;5240;51.128;4.566;2023-06-14T07:02:04;12.48;;;6.32;;
10387;SDS011;5240;51.128;4.566;2023-06-14T07:04:33;10.10;;;6.22;;
10387;SDS011;5240;51.128;4.566;2023-06-14T07:09:51;12.00;;;6.75;;
10387;SDS011;5240;51.128;4.566;2023-06-14T07:12:18;16.10;;;7.38;;
10387;SDS011;5240;51.128;4.566;2023-06-14T07:14:46;11.30;;;6.20;;
10387;SDS011;5240;51.128;4.566;2023-06-14T07:17:16;11.68;;;6.95;;
10387;SDS011;5240;51.128;4.566;2023-06-14T07:19:43;23.08;;;7.70;;
10387;SDS011;5240;51.128;4.566;2023-06-14T07:22:11;12.35;;;6.78;;
10387;SDS011;5240;51.128;4.566;2023-06-14T07:24:49;11.15;;;7.03;;
10387;SDS011;5240;51.128;4.566;2023-06-14T07:27:17;11.02;;;6.60;;
10387;SDS011;5240;51.128;4.566;2023-06-14T07:29:53;11.93;;;6.82;;
10387;SDS011;5240;51.128;4.566;2023-06-14T07:32:34;12.93;;;6.55;;
10387;SDS011;5240;51.128;4.566;2023-06-14T07:35:32;10.82;;;6.90;;
10387;SDS011;5240;51.128;4.566;2023-06-14T07:37:59;13.85;;;7.50;;
10387;SDS011;5240;51.128;4.566;2023-06-14T07:40:28;11.80;;;6.95;;
10387;SDS011;5240;51.128;4.566;2023-06-14T07:42:55;8.35;;;6.50;;
10387;SDS011;5240;51.128;4.566;2023-06-14T07:45:24;11.68;;;6.68;;
10387;SDS011;5240;51.128;4.566;2023-06-14T07:53:00;10.13;;;6.22;;
10387;SDS011;5240;51.128;4.566;2023-06-14T07:55:28;8.77;;;6.50;;
10387;SDS011;5240;51.128;4.566;2023-06-14T07:57:57;16.17;;;7.45;;
10387;SDS011;5240;51.128;4.566;2023-06-14T08:00:24;9.73;;;6.13;;
10387;SDS011;5240;51.128;4.566;2023-06-14T08:02:51;12.85;;;6.75;;
10387;SDS011;5240;51.128;4.566;2023-06-14T08:05:23;8.77;;;6.45;;
10387;SDS011;5240;51.128;4.566;2023-06-14T08:07:51;11.80;;;6.65;;
10387;SDS011;5240;51.128;4.566;2023-06-14T08:15:45;11.10;;;7.05;;
10387;SDS011;5240;51.128;4.566;2023-06-14T08:18:13;10.70;;;6.43;;
10387;SDS011;5240;51.128;4.566;2023-06-14T08:26:35;10.55;;;6.60;;
10387;SDS011;5240;51.128;4.566;2023-06-14T08:34:40;11.43;;;6.45;;
10387;SDS011;5240;51.128;4.566;2023-06-14T08:37:15;11.15;;;6.28;;
10387;SDS011;5240;51.128;4.566;2023-06-14T08:39:42;8.35;;;6.88;;
10387;SDS011;5240;51.128;4.566;2023-06-14T08:42:10;11.77;;;6.50;;
10387;SDS011;5240;51.128;4.566;2023-06-14T08:44:38;21.50;;;8.63;;
10387;SDS011;5240;51.128;4.566;2023-06-14T08:47:09;9.15;;;6.15;;
10387;SDS011;5240;51.128;4.566;2023-06-14T08:53:04;6.63;;;5.57;;
10387;SDS011;5240;51.128;4.566;2023-06-14T08:55:35;9.75;;;5.40;;
10387;SDS011;5240;51.128;4.566;2023-06-14T08:58:04;9.02;;;5.70;;
10387;SDS011;5240;51.128;4.566;2023-06-14T09:00:34;9.20;;;5.38;;
10387;SDS011;5240;51.128;4.566;2023-06-14T09:03:06;10.73;;;5.88;;
10387;SDS011;5240;51.128;4.566;2023-06-14T09:05:38;7.05;;;6.00;;
10387;SDS011;5240;51.128;4.566;2023-06-14T09:44:41;7.78;;;5.15;;
10387;SDS011;5240;51.128;4.566;2023-06-14T09:47:12;8.57;;;4.95;;
10387;SDS011;5240;51.128;4.566;2023-06-14T09:49:41;9.80;;;4.97;;
10387;SDS011;5240;51.128;4.566;2023-06-14T09:52:08;7.88;;;4.80;;
10387;SDS011;5240;51.128;4.566;2023-06-14T09:57:26;8.93;;;4.68;;
10387;SDS011;5240;51.128;4.566;2023-06-14T10:00:11;8.68;;;4.53;;
10387;SDS011;5240;51.128;4.566;2023-06-14T10:02:57;7.72;;;4.68;;
10387;SDS011;5240;51.128;4.566;2023-06-14T10:05:39;7.90;;;4.65;;
10387;SDS011;5240;51.128;4.566;2023-06-14T10:10:42;13.30;;;4.70;;
10387;SDS011;5240;51.128;4.566;2023-06-14T10:18:28;8.73;;;4.55;;
10387;SDS011;5240;51.128;4.566;2023-06-14T10:21:00;9.52;;;5.05;;
10387;SDS011;5240;51.128;4.566;2023-06-14T10:23:33;9.88;;;4.90;;
10387;SDS011;5240;51.128;4.566;2023-06-14T10:26:05;7.13;;;4.20;;
10387;SDS011;5240;51.128;4.566;2023-06-14T10:28:32;11.93;;;4.50;;
10387;SDS011;5240;51.128;4.566;2023-06-14T10:31:07;9.38;;;4.53;;
10387;SDS011;5240;51.128;4.566;2023-06-14T10:33:38;11.68;;;4.55;;
10387;SDS011;5240;51.128;4.566;2023-06-14T10:38:59;7.68;;;4.50;;
10387;SDS011;5240;51.128;4.566;2023-06-14T10:41:27;9.65;;;4.88;;
10387;SDS011;5240;51.128;4.566;2023-06-14T10:46:36;12.38;;;5.00;;
10387;SDS011;5240;51.128;4.566;2023-06-14T10:49:05;9.57;;;4.30;;
10387;SDS011;5240;51.128;4.566;2023-06-14T10:51:38;7.75;;;4.20;;
10387;SDS011;5240;51.128;4.566;2023-06-14T10:54:11;8.00;;;4.10;;
10387;SDS011;5240;51.128;4.566;2023-06-14T10:56:39;7.47;;;4.47;;
10387;SDS011;5240;51.128;4.566;2023-06-14T10:59:13;11.32;;;4.43;;
10387;SDS011;5240;51.128;4.566;2023-06-14T11:01:41;6.28;;;4.07;;
10387;SDS011;5240;51.128;4.566;2023-06-14T11:04:13;5.20;;;4.07;;
10387;SDS011;5240;51.128;4.566;2023-06-14T11:06:47;12.52;;;4.40;;
10387;SDS011;5240;51.128;4.566;2023-06-14T11:09:27;10.25;;;4.45;;
10387;SDS011;5240;51.128;4.566;2023-06-14T11:12:01;10.40;;;4.30;;
10387;SDS011;5240;51.128;4.566;2023-06-14T11:14:29;6.68;;;4.32;;
10387;SDS011;5240;51.128;4.566;2023-06-14T11:16:56;5.35;;;4.18;;
10387;SDS011;5240;51.128;4.566;2023-06-14T11:19:25;10.10;;;3.97;;
10387;SDS011;5240;51.128;4.566;2023-06-14T11:21:54;10.75;;;4.63;;
10387;SDS011;5240;51.128;4.566;2023-06-14T11:24:21;7.95;;;4.80;;
10387;SDS011;5240;51.128;4.566;2023-06-14T11:26:48;9.40;;;3.85;;
10387;SDS011;5240;51.128;4.566;2023-06-14T11:29:16;10.88;;;4.00;;
10387;SDS011;5240;51.128;4.566;2023-06-14T11:31:43;10.45;;;4.32;;
10387;SDS011;5240;51.128;4.566;2023-06-14T11:34:11;4.30;;;3.90;;
10387;SDS011;5240;51.128;4.566;2023-06-14T11:36:40;9.77;;;4.35;;
10387;SDS011;5240;51.128;4.566;2023-06-14T11:39:08;12.05;;;4.25;;
10387;SDS011;5240;51.128;4.566;2023-06-14T11:41:36;9.25;;;4.30;;
10387;SDS011;5240;51.128;4.566;2023-06-14T11:44:04;5.32;;;3.60;;
10387;SDS011;5240;51.128;4.566;2023-06-14T11:46:31;7.72;;;4.03;;
10387;SDS011;5240;51.128;4.566;2023-06-14T11:48:58;5.32;;;4.10;;
10387;SDS011;5240;51.128;4.566;2023-06-14T11:51:28;9.20;;;3.67;;
10387;SDS011;5240;51.128;4.566;2023-06-14T11:53:57;5.97;;;4.07;;
10387;SDS011;5240;51.128;4.566;2023-06-14T11:56:24;8.75;;;4.00;;
10387;SDS011;5240;51.128;4.566;2023-06-14T11:58:52;9.50;;;4.10;;
10387;SDS011;5240;51.128;4.566;2023-06-14T12:01:21;6.88;;;3.83;;
10387;SDS011;5240;51.128;4.566;2023-06-14T12:03:49;4.40;;;3.50;;
10387;SDS011;5240;51.128;4.566;2023-06-14T12:06:24;5.63;;;3.88;;
10387;SDS011;5240;51.128;4.566;2023-06-14T12:08:54;11.00;;;4.07;;
10387;SDS011;5240;51.128;4.566;2023-06-14T12:11:23;10.75;;;3.72;;
10387;SDS011;5240;51.128;4.566;2023-06-14T12:13:52;5.95;;;3.38;;
10387;SDS011;5240;51.128;4.566;2023-06-14T12:16:19;8.60;;;3.90;;
10387;SDS011;5240;51.128;4.566;2023-06-14T12:18:46;7.75;;;3.65;;
10387;SDS011;5240;51.128;4.566;2023-06-14T12:21:14;6.85;;;3.55;;
10387;SDS011;5240;51.128;4.566;2023-06-14T12:23:45;4.18;;;3.55;;
10387;SDS011;5240;51.128;4.566;2023-06-14T12:26:13;4.22;;;3.80;;
10387;SDS011;5240;51.128;4.566;2023-06-14T12:28:42;8.07;;;3.80;;
10387;SDS011;5240;51.128;4.566;2023-06-14T12:31:11;5.18;;;3.40;;
10387;SDS011;5240;51.128;4.566;2023-06-14T12:33:38;6.97;;;3.58;;
10387;SDS011;5240;51.128;4.566;2023-06-14T12:36:06;5.53;;;3.30;;
10387;SDS011;5240;51.128;4.566;2023-06-14T12:38:34;7.22;;;3.30;;
10387;SDS011;5240;51.128;4.566;2023-06-14T12:41:01;5.32;;;2.90;;
10387;SDS011;5240;51.128;4.566;2023-06-14T12:43:29;3.95;;;3.13;;
10387;SDS011;5240;51.128;4.566;2023-06-14T12:45:57;5.32;;;3.10;;
10387;SDS011;5240;51.128;4.566;2023-06-14T12:48:25;6.22;;;3.00;;
10387;SDS011;5240;51.128;4.566;2023-06-14T12:50:52;8.52;;;2.90;;
10387;SDS011;5240;51.128;4.566;2023-06-14T12:53:20;9.70;;;2.90;;
10387;SDS011;5240;51.128;4.566;2023-06-14T12:55:48;4.00;;;2.75;;
10387;SDS011;5240;51.128;4.566;2023-06-14T12:58:15;5.18;;;3.00;;
10387;SDS011;5240;51.128;4.566;2023-06-14T13:00:44;2.95;;;2.53;;
10387;SDS011;5240;51.128;4.566;2023-06-14T13:03:13;3.10;;;2.80;;
10387;SDS011;5240;51.128;4.566;2023-06-14T13:05:40;9.77;;;2.80;;
10387;SDS011;5240;51.128;4.566;2023-06-14T13:08:08;4.68;;;2.60;;
10387;SDS011;5240;51.128;4.566;2023-06-14T13:10:35;6.82;;;2.60;;
10387;SDS011;5240;51.128;4.566;2023-06-14T13:13:03;5.10;;;2.13;;
10387;SDS011;5240;51.128;4.566;2023-06-14T13:15:30;7.90;;;2.65;;
10387;SDS011;5240;51.128;4.566;2023-06-14T13:17:57;4.07;;;2.30;;
10387;SDS011;5240;51.128;4.566;2023-06-14T13:20:26;4.68;;;2.30;;
10387;SDS011;5240;51.128;4.566;2023-06-14T13:22:53;4.80;;;2.30;;
10387;SDS011;5240;51.128;4.566;2023-06-14T13:25:21;5.57;;;2.55;;
10387;SDS011;5240;51.128;4.566;2023-06-14T13:27:48;4.22;;;2.40;;
10387;SDS011;5240;51.128;4.566;2023-06-14T13:30:15;4.75;;;2.65;;
10387;SDS011;5240;51.128;4.566;2023-06-14T13:32:43;6.20;;;2.35;;
10387;SDS011;5240;51.128;4.566;2023-06-14T13:35:10;5.82;;;2.50;;
10387;SDS011;5240;51.128;4.566;2023-06-14T13:37:38;6.18;;;2.28;;
10387;SDS011;5240;51.128;4.566;2023-06-14T13:40:06;3.17;;;2.50;;
10387;SDS011;5240;51.128;4.566;2023-06-14T13:42:33;4.72;;;2.45;;
10387;SDS011;5240;51.128;4.566;2023-06-14T13:45:01;4.57;;;2.38;;
10387;SDS011;5240;51.128;4.566;2023-06-14T13:47:28;4.18;;;2.38;;
10387;SDS011;5240;51.128;4.566;2023-06-14T13:49:56;3.33;;;2.58;;
10387;SDS011;5240;51.128;4.566;2023-06-14T13:52:23;7.38;;;2.50;;
10387;SDS011;5240;51.128;4.566;2023-06-14T13:54:52;8.48;;;2.42;;
10387;SDS011;5240;51.128;4.566;2023-06-14T13:57:19;2.45;;;2.25;;
10387;SDS011;5240;51.128;4.566;2023-06-14T13:59:47;3.92;;;2.38;;
10387;SDS011;5240;51.128;4.566;2023-06-14T14:02:14;2.78;;;2.25;;
10387;SDS011;5240;51.128;4.566;2023-06-14T14:04:42;2.42;;;2.15;;
10387;SDS011;5240;51.128;4.566;2023-06-14T14:07:09;4.68;;;2.45;;
10387;SDS011;5240;51.128;4.566;2023-06-14T14:09:36;8.05;;;2.65;;
10387;SDS011;5240;51.128;4.566;2023-06-14T14:12:06;5.32;;;2.60;;
10387;SDS011;5240;51.128;4.566;2023-06-14T14:14:33;3.80;;;2.47;;
10387;SDS011;5240;51.128;4.566;2023-06-14T14:17:01;2.83;;;2.10;;
10387;SDS011;5240;51.128;4.566;2023-06-14T14:19:29;6.25;;;2.45;;
10387;SDS011;5240;51.128;4.566;2023-06-14T14:21:56;8.25;;;2.60;;
10387;SDS011;5240;51.128;4.566;2023-06-14T14:24:23;5.82;;;2.70;;
10387;SDS011;5240;51.128;4.566;2023-06-14T14:26:51;5.50;;;2.38;;
10387;SDS011;5240;51.128;4.566;2023-06-14T14:29:20;4.80;;;2.83;;
10387;SDS011;5240;51.128;4.566;2023-06-14T14:31:47;4.93;;;2.70;;
10387;SDS011;5240;51.128;4.566;2023-06-14T14:34:15;3.88;;;2.65;;
10387;SDS011;5240;51.128;4.566;2023-06-14T14:36:42;4.07;;;2.80;;
10387;SDS011;5240;51.128;4.566;2023-06-14T14:39:09;3.42;;;2.53;;
10387;SDS011;5240;51.128;4.566;2023-06-14T14:41:37;4.68;;;3.00;;
10387;SDS011;5240;51.128;4.566;2023-06-14T14:44:05;5.63;;;2.80;;
10387;SDS011;5240;51.128;4.566;2023-06-14T14:46:34;5.00;;;2.40;;
10387;SDS011;5240;51.128;4.566;2023-06-14T14:49:01;4.97;;;2.53;;
10387;SDS011;5240;51.128;4.566;2023-06-14T14:51:28;3.88;;;2.70;;
10387;SDS011;5240;51.128;4.566;2023-06-14T14:53:55;4.60;;;2.90;;
10387;SDS011;5240;51.128;4.566;2023-06-14T14:56:23;4.50;;;2.50;;
10387;SDS011;5240;51.128;4.566;2023-06-14T14:58:50;5.63;;;2.80;;
10387;SDS011;5240;51.128;4.566;2023-06-14T15:01:18;5.43;;;2.47;;
10387;SDS011;5240;51.128;4.566;2023-06-14T15:03:46;5.38;;;2.40;;
10387;SDS011;5240;51.128;4.566;2023-06-14T15:06:14;6.60;;;2.67;;
10387;SDS011;5240;51.128;4.566;2023-06-14T15:08:42;3.45;;;2.83;;
10387;SDS011;5240;51.128;4.566;2023-06-14T15:11:10;2.90;;;2.55;;
10387;SDS011;5240;51.128;4.566;2023-06-14T15:13:37;5.22;;;2.40;;
10387;SDS011;5240;51.128;4.566;2023-06-14T15:16:04;4.00;;;2.65;;
10387;SDS011;5240;51.128;4.566;2023-06-14T15:18:32;4.07;;;2.20;;
10387;SDS011;5240;51.128;4.566;2023-06-14T15:21:00;4.68;;;2.58;;
10387;SDS011;5240;51.128;4.566;2023-06-14T15:23:28;4.55;;;2.92;;
10387;SDS011;5240;51.128;4.566;2023-06-14T15:25:55;3.88;;;2.28;;
10387;SDS011;5240;51.128;4.566;2023-06-14T15:28:23;4.03;;;2.50;;
10387;SDS011;5240;51.128;4.566;2023-06-14T15:30:53;5.60;;;2.67;;
10387;SDS011;5240;51.128;4.566;2023-06-14T15:33:20;5.68;;;2.83;;
10387;SDS011;5240;51.128;4.566;2023-06-14T15:35:48;4.30;;;2.55;;
10387;SDS011;5240;51.128;4.566;2023-06-14T15:38:16;5.03;;;2.50;;
10387;SDS011;5240;51.128;4.566;2023-06-14T15:40:44;2.97;;;2.35;;
10387;SDS011;5240;51.128;4.566;2023-06-14T15:43:11;5.80;;;2.30;;
10387;SDS011;5240;51.128;4.566;2023-06-14T15:45:38;3.05;;;2.40;;
10387;SDS011;5240;51.128;4.566;2023-06-14T15:48:08;3.17;;;2.30;;
10387;SDS011;5240;51.128;4.566;2023-06-14T15:50:36;3.30;;;2.40;;
10387;SDS011;5240;51.128;4.566;2023-06-14T15:53:03;5.53;;;2.50;;
10387;SDS011;5240;51.128;4.566;2023-06-14T15:55:32;4.10;;;2.30;;
10387;SDS011;5240;51.128;4.566;2023-06-14T15:57:59;5.20;;;2.40;;
10387;SDS011;5240;51.128;4.566;2023-06-14T16:00:26;4.85;;;2.20;;
10387;SDS011;5240;51.128;4.566;2023-06-14T16:02:53;4.47;;;2.40;;
10387;SDS011;5240;51.128;4.566;2023-06-14T16:05:20;6.90;;;2.22;;
10387;SDS011;5240;51.128;4.566;2023-06-14T16:07:48;3.50;;;2.60;;
10387;SDS011;5240;51.128;4.566;2023-06-14T16:10:15;5.07;;;2.42;;
10387;SDS011;5240;51.128;4.566;2023-06-14T16:12:44;6.10;;;2.63;;
10387;SDS011;5240;51.128;4.566;2023-06-14T16:15:11;9.07;;;2.47;;
10387;SDS011;5240;51.128;4.566;2023-06-14T16:17:40;3.05;;;2.30;;
10387;SDS011;5240;51.128;4.566;2023-06-14T16:20:08;4.65;;;2.30;;
10387;SDS011;5240;51.128;4.566;2023-06-14T16:22:36;4.28;;;2.70;;
10387;SDS011;5240;51.128;4.566;2023-06-14T16:25:03;7.78;;;2.25;;
10387;SDS011;5240;51.128;4.566;2023-06-14T16:27:31;3.20;;;2.58;;
10387;SDS011;5240;51.128;4.566;2023-06-14T16:30:00;5.97;;;2.38;;